Time;durP1;ratioP1;P1;durP2;ratioP2;P2;SDS_P1;SDS_P2;PMS_P1;PMS_P2;Temp;Humidity;BMP_temperature;BMP_pressure;BME280_temperature;BME280_humidity;BME280_pressure;Samples;Min_cycle;Max_cycle;Signal;HPM_P1;HPM_P2
2023/10/24 00:00:55;;;;;;;3.08;1.90;;;22.10;55.10;;;;;;5037682;28;20030;-70
2023/10/24 00:03:20;;;;;;;3.42;1.95;;;22.10;55.10;;;;;;5036260;28;20117;-72
2023/10/24 00:05:48;;;;;;;4.40;1.80;;;22.10;55.10;;;;;;5038646;28;20108;-71
2023/10/24 00:08:13;;;;;;;3.00;1.58;;;22.10;55.10;;;;;;5036776;28;20027;-71
2023/10/24 00:10:39;;;;;;;3.17;1.60;;;22.10;55.10;;;;;;5036702;28;20033;-72
2023/10/24 00:13:05;;;;;;;3.28;1.85;;;22.10;55.10;;;;;;5039355;28;20056;-71
2023/10/24 00:15:30;;;;;;;3.63;2.33;;;22.10;55.10;;;;;;5037411;28;20100;-72
2023/10/24 00:17:56;;;;;;;3.78;1.95;;;22.00;55.10;;;;;;5037574;28;20067;-71
2023/10/24 00:20:22;;;;;;;3.78;2.00;;;22.10;55.10;;;;;;5038922;28;20056;-71
2023/10/24 00:22:47;;;;;;;3.25;1.88;;;22.00;55.10;;;;;;5035868;28;20116;-72
2023/10/24 00:25:14;;;;;;;3.53;1.85;;;22.00;55.10;;;;;;5040624;28;20414;-71
2023/10/24 00:27:39;;;;;;;3.35;2.03;;;22.00;55.10;;;;;;5037645;28;20025;-71
2023/10/24 00:30:06;;;;;;;3.85;1.83;;;22.00;55.10;;;;;;5039463;28;20087;-71
2023/10/24 00:32:31;;;;;;;3.20;1.75;;;22.00;55.10;;;;;;5036987;28;20119;-70
2023/10/24 00:34:57;;;;;;;3.38;2.20;;;22.00;55.10;;;;;;5035825;28;20426;-71
2023/10/24 00:37:23;;;;;;;3.40;1.73;;;22.00;55.10;;;;;;5044949;28;20029;-71
2023/10/24 00:39:48;;;;;;;3.25;1.98;;;22.00;55.10;;;;;;5036846;28;20067;-71
2023/10/24 00:42:14;;;;;;;3.15;1.70;;;22.00;55.20;;;;;;5037623;28;20330;-71
2023/10/24 00:44:40;;;;;;;3.17;1.70;;;22.00;55.10;;;;;;5039769;28;20032;-71
2023/10/24 00:47:05;;;;;;;3.30;1.70;;;22.00;55.10;;;;;;5037248;28;20477;-71
2023/10/24 00:49:31;;;;;;;2.58;1.45;;;22.00;55.10;;;;;;5036521;28;20046;-71
2023/10/24 00:51:58;;;;;;;3.20;1.83;;;22.00;55.20;;;;;;5038078;28;20048;-71
2023/10/24 00:54:27;;;;;;;3.40;1.70;;;22.00;55.20;;;;;;5036601;28;20531;-71
2023/10/24 00:56:53;;;;;;;3.05;1.80;;;22.00;55.20;;;;;;5039049;28;20055;-70
2023/10/24 00:59:22;;;;;;;4.45;2.13;;;21.90;55.20;;;;;;5038927;28;20038;-70
2023/10/24 01:01:48;;;;;;;2.20;1.33;;;21.90;55.20;;;;;;5039014;28;20060;-71
2023/10/24 01:04:14;;;;;;;3.25;1.60;;;21.90;55.20;;;;;;5036208;28;20124;-70
2023/10/24 01:06:40;;;;;;;3.08;1.77;;;21.90;55.20;;;;;;5038622;28;20619;-71
2023/10/24 01:09:05;;;;;;;3.22;1.80;;;21.90;55.20;;;;;;5038406;28;20155;-71
2023/10/24 01:11:32;;;;;;;3.17;1.70;;;21.90;55.20;;;;;;5037537;28;20474;-70
2023/10/24 01:14:01;;;;;;;3.03;1.50;;;21.90;55.20;;;;;;5035406;28;20400;-71
2023/10/24 01:16:27;;;;;;;2.95;1.63;;;21.90;55.20;;;;;;5037201;28;20509;-72
2023/10/24 01:18:53;;;;;;;2.80;1.60;;;21.90;55.20;;;;;;5042523;28;20143;-72
2023/10/24 01:21:18;;;;;;;2.85;1.40;;;21.90;55.20;;;;;;5039828;28;20041;-73
2023/10/24 01:23:45;;;;;;;3.72;1.77;;;21.90;55.20;;;;;;5042639;28;20024;-72
2023/10/24 01:26:14;;;;;;;2.85;1.35;;;21.80;55.10;;;;;;5041815;28;20472;-71
2023/10/24 01:28:39;;;;;;;3.30;1.80;;;21.80;55.10;;;;;;5041282;28;20037;-71
2023/10/24 01:31:05;;;;;;;2.72;1.60;;;21.80;55.20;;;;;;5039465;28;20045;-72
2023/10/24 01:33:31;;;;;;;3.58;1.98;;;21.80;55.20;;;;;;5037965;28;20034;-71
2023/10/24 01:35:56;;;;;;;2.60;1.50;;;21.80;55.20;;;;;;5038707;28;20029;-71
2023/10/24 01:38:22;;;;;;;3.10;1.80;;;21.80;55.20;;;;;;5041572;28;20083;-68
2023/10/24 01:40:47;;;;;;;3.28;1.67;;;21.80;55.20;;;;;;5040638;28;20029;-67
2023/10/24 01:43:13;;;;;;;3.25;1.95;;;21.80;55.20;;;;;;5042102;28;20021;-67
2023/10/24 01:45:39;;;;;;;3.47;1.52;;;21.80;55.30;;;;;;5042380;28;20040;-67
2023/10/24 01:48:04;;;;;;;2.65;1.30;;;21.80;55.20;;;;;;5037983;28;20024;-68
2023/10/24 01:50:30;;;;;;;3.03;1.50;;;21.80;55.30;;;;;;5040168;28;20108;-68
2023/10/24 01:52:58;;;;;;;3.05;1.70;;;21.80;55.30;;;;;;5040069;28;20088;-68
2023/10/24 01:55:24;;;;;;;2.90;1.50;;;21.70;55.20;;;;;;5042431;28;20557;-68
2023/10/24 01:57:50;;;;;;;3.22;1.73;;;21.80;55.30;;;;;;5038748;28;20061;-68
2023/10/24 02:00:16;;;;;;;3.35;1.80;;;21.70;55.20;;;;;;5039949;28;20045;-67
2023/10/24 02:02:41;;;;;;;2.40;1.27;;;21.70;55.20;;;;;;5042533;28;20036;-67
2023/10/24 02:05:08;;;;;;;2.35;1.42;;;21.70;55.20;;;;;;5038592;28;20036;-68
2023/10/24 02:07:33;;;;;;;2.47;1.42;;;21.70;55.20;;;;;;5040051;28;20035;-68
2023/10/24 02:09:59;;;;;;;2.58;1.30;;;21.70;55.30;;;;;;5041708;28;20025;-68
2023/10/24 02:12:24;;;;;;;2.58;1.30;;;21.70;55.30;;;;;;5040494;28;20033;-68
2023/10/24 02:14:51;;;;;;;2.33;1.40;;;21.70;55.30;;;;;;5040620;28;20028;-68
2023/10/24 02:17:17;;;;;;;1.92;1.30;;;21.70;55.30;;;;;;5040611;28;20071;-68
2023/10/24 02:19:42;;;;;;;2.67;1.50;;;21.70;55.30;;;;;;5038450;28;20060;-68
2023/10/24 02:22:08;;;;;;;2.78;1.52;;;21.70;55.30;;;;;;5039357;28;20380;-68
2023/10/24 02:24:34;;;;;;;2.20;1.30;;;21.70;55.30;;;;;;5039091;28;20033;-68
2023/10/24 02:27:00;;;;;;;2.50;1.30;;;21.70;55.30;;;;;;5039591;28;20091;-70
2023/10/24 02:29:25;;;;;;;2.38;1.40;;;21.70;55.40;;;;;;5039863;28;20099;-70
2023/10/24 02:31:51;;;;;;;2.08;1.25;;;21.60;55.30;;;;;;5040906;28;20032;-70
2023/10/24 02:34:17;;;;;;;3.05;1.50;;;21.60;55.30;;;;;;5038419;28;20029;-70
2023/10/24 02:36:43;;;;;;;2.20;1.30;;;21.60;55.40;;;;;;5040983;28;20024;-71
2023/10/24 02:39:09;;;;;;;2.30;1.30;;;21.60;55.30;;;;;;5041050;28;20024;-70
2023/10/24 02:41:35;;;;;;;2.00;1.10;;;21.60;55.30;;;;;;5039305;28;20033;-70
2023/10/24 02:44:01;;;;;;;2.25;1.27;;;21.60;55.30;;;;;;5039267;28;20030;-70
2023/10/24 02:46:26;;;;;;;2.28;1.27;;;21.60;55.40;;;;;;5036986;28;20412;-68
2023/10/24 02:48:52;;;;;;;2.38;1.40;;;21.60;55.40;;;;;;5038335;28;20025;-68
2023/10/24 02:51:17;;;;;;;2.13;1.35;;;21.60;55.40;;;;;;5040268;28;20041;-68
2023/10/24 02:53:43;;;;;;;2.80;1.40;;;21.60;55.40;;;;;;5038877;28;20033;-68
2023/10/24 02:56:09;;;;;;;1.85;1.00;;;21.60;55.40;;;;;;5039116;28;20032;-68
2023/10/24 02:58:35;;;;;;;2.05;1.20;;;21.60;55.40;;;;;;5039756;28;20044;-68
2023/10/24 03:01:04;;;;;;;2.72;1.40;;;21.60;55.40;;;;;;5038980;28;20116;-68
2023/10/24 03:03:30;;;;;;;1.70;1.15;;;21.60;55.40;;;;;;5039328;28;20021;-68
2023/10/24 03:05:56;;;;;;;3.25;1.55;;;21.60;55.40;;;;;;5040192;28;20107;-68
2023/10/24 03:08:21;;;;;;;2.30;1.35;;;21.60;55.40;;;;;;5040289;28;20033;-67
2023/10/24 03:10:47;;;;;;;2.50;1.23;;;21.60;55.40;;;;;;5041526;28;20033;-69
2023/10/24 03:13:13;;;;;;;1.48;0.98;;;21.50;55.40;;;;;;5038384;28;20028;-68
2023/10/24 03:15:39;;;;;;;2.00;1.20;;;21.50;55.40;;;;;;5041025;28;20025;-67
2023/10/24 03:18:05;;;;;;;2.20;1.30;;;21.50;55.40;;;;;;5039020;28;20381;-68
2023/10/24 03:20:31;;;;;;;2.00;1.20;;;21.50;55.40;;;;;;5037721;28;20020;-68
2023/10/24 03:22:57;;;;;;;3.42;1.35;;;21.50;55.40;;;;;;5039045;28;20029;-68
2023/10/24 03:25:26;;;;;;;1.73;1.13;;;21.50;55.40;;;;;;5038597;28;20039;-68
2023/10/24 03:27:55;;;;;;;2.38;1.30;;;21.50;55.40;;;;;;5037540;28;20024;-68
2023/10/24 03:30:21;;;;;;;2.60;1.33;;;21.50;55.40;;;;;;5037176;28;20034;-69
2023/10/24 03:32:47;;;;;;;2.63;1.63;;;21.50;55.40;;;;;;5039889;28;20371;-68
2023/10/24 03:35:16;;;;;;;1.95;1.10;;;21.50;55.40;;;;;;5035575;28;20562;-68
2023/10/24 03:37:41;;;;;;;2.45;1.38;;;21.50;55.40;;;;;;5037534;28;20032;-71
2023/10/24 03:40:08;;;;;;;2.25;1.10;;;21.50;55.40;;;;;;5037869;28;20040;-70
2023/10/24 03:42:34;;;;;;;2.20;1.17;;;21.50;55.40;;;;;;5039641;28;20029;-71
2023/10/24 03:45:00;;;;;;;2.03;1.20;;;21.50;55.50;;;;;;5038933;28;20055;-70
2023/10/24 03:47:25;;;;;;;1.75;1.10;;;21.50;55.50;;;;;;5037587;28;20037;-71
2023/10/24 03:49:51;;;;;;;2.13;1.20;;;21.50;55.50;;;;;;5037011;28;20380;-70
2023/10/24 03:52:18;;;;;;;1.85;1.20;;;21.50;55.50;;;;;;5038729;28;20044;-70
2023/10/24 03:54:43;;;;;;;2.10;1.10;;;21.50;55.50;;;;;;5039183;28;20145;-70
2023/10/24 03:57:09;;;;;;;1.60;1.00;;;21.40;55.50;;;;;;5038879;28;20026;-67
2023/10/24 03:59:34;;;;;;;2.28;1.40;;;21.50;55.50;;;;;;5036972;28;20029;-67
2023/10/24 04:02:00;;;;;;;2.15;1.10;;;21.50;56.10;;;;;;5037487;28;20390;-68
2023/10/24 04:04:26;;;;;;;2.10;1.10;;;21.40;55.50;;;;;;5036073;28;20060;-66
2023/10/24 04:06:51;;;;;;;1.58;1.08;;;21.40;55.50;;;;;;5038027;28;20029;-68
2023/10/24 04:09:17;;;;;;;2.70;1.20;;;21.50;55.60;;;;;;5038651;28;20382;-68
2023/10/24 04:11:43;;;;;;;1.92;1.27;;;21.40;55.50;;;;;;5036759;28;20044;-67
2023/10/24 04:14:09;;;;;;;2.45;1.30;;;21.40;55.50;;;;;;5036205;28;20079;-68
2023/10/24 04:16:35;;;;;;;1.67;1.10;;;21.40;55.60;;;;;;5036841;28;20436;-68
2023/10/24 04:19:02;;;;;;;2.17;1.20;;;21.40;55.60;;;;;;5038870;28;20036;-70
2023/10/24 04:21:27;;;;;;;1.92;1.20;;;21.40;55.50;;;;;;5036498;28;20033;-70
2023/10/24 04:23:53;;;;;;;1.60;1.00;;;21.40;55.60;;;;;;5038324;28;20028;-70
2023/10/24 04:26:19;;;;;;;1.65;1.10;;;21.40;55.60;;;;;;5039914;28;20025;-70
2023/10/24 04:28:44;;;;;;;2.55;1.27;;;21.40;55.60;;;;;;5038339;28;20021;-70
2023/10/24 04:31:10;;;;;;;1.48;1.00;;;21.40;55.50;;;;;;5036468;28;20077;-70
2023/10/24 04:33:36;;;;;;;1.65;1.00;;;21.40;55.50;;;;;;5037646;28;20040;-70
2023/10/24 04:36:01;;;;;;;1.75;1.00;;;21.40;55.60;;;;;;5038339;28;20325;-69
2023/10/24 04:38:27;;;;;;;1.70;1.08;;;21.40;55.60;;;;;;5036204;28;20489;-70
2023/10/24 04:40:53;;;;;;;1.88;1.10;;;21.40;55.60;;;;;;5039705;28;20033;-70
2023/10/24 04:43:18;;;;;;;1.52;0.90;;;21.40;55.60;;;;;;5036731;28;20028;-70
2023/10/24 04:45:44;;;;;;;1.70;1.00;;;21.40;55.60;;;;;;5040620;28;20144;-70
2023/10/24 04:48:10;;;;;;;1.50;0.88;;;21.40;55.60;;;;;;5037402;28;20040;-70
2023/10/24 04:50:40;;;;;;;1.52;0.90;;;21.40;55.60;;;;;;5037996;28;20033;-69
2023/10/24 04:53:06;;;;;;;1.80;1.08;;;21.40;55.60;;;;;;5040626;28;20424;-70
2023/10/24 04:55:32;;;;;;;1.33;0.98;;;21.40;55.60;;;;;;5041560;28;20028;-70
2023/10/24 04:57:59;;;;;;;1.38;0.90;;;21.40;55.60;;;;;;5041707;28;20060;-70
2023/10/24 05:00:25;;;;;;;1.70;1.00;;;21.40;55.70;;;;;;5041030;28;20397;-70
2023/10/24 05:02:51;;;;;;;2.35;1.20;;;21.40;55.70;;;;;;5040873;28;20029;-70
2023/10/24 05:05:17;;;;;;;1.83;1.10;;;21.40;55.80;;;;;;5040630;28;20040;-70
2023/10/24 05:07:43;;;;;;;1.67;1.05;;;21.40;55.80;;;;;;5041586;28;20037;-68
2023/10/24 05:10:12;;;;;;;1.67;1.00;;;21.40;55.80;;;;;;5039745;28;20440;-68
2023/10/24 05:12:38;;;;;;;2.60;1.30;;;21.30;55.80;;;;;;5040563;28;20032;-68
2023/10/24 05:15:04;;;;;;;1.40;0.90;;;21.30;55.90;;;;;;5041759;28;20029;-68
2023/10/24 05:17:30;;;;;;;2.17;1.25;;;21.40;55.90;;;;;;5041769;28;20078;-69
2023/10/24 05:20:02;;;;;;;2.30;1.23;;;21.40;55.90;;;;;;5040224;28;20123;-69
2023/10/24 05:22:28;;;;;;;1.75;1.05;;;21.40;56.00;;;;;;5041407;28;20080;-69
2023/10/24 05:24:54;;;;;;;1.98;1.10;;;21.40;56.00;;;;;;5040970;28;20030;-69
2023/10/24 05:27:20;;;;;;;1.60;1.10;;;21.30;55.90;;;;;;5042414;28;20036;-68
2023/10/24 05:29:46;;;;;;;2.25;1.17;;;21.40;56.00;;;;;;5041700;28;20021;-69
2023/10/24 05:32:11;;;;;;;2.33;1.20;;;21.40;56.00;;;;;;5042686;28;20034;-69
2023/10/24 05:34:38;;;;;;;1.98;1.08;;;21.30;56.00;;;;;;5037449;28;20044;-68
2023/10/24 05:37:04;;;;;;;2.30;1.42;;;21.30;56.00;;;;;;5040649;28;20036;-68
2023/10/24 05:39:30;;;;;;;2.00;1.13;;;21.30;56.00;;;;;;5040919;28;20029;-69
2023/10/24 05:41:56;;;;;;;3.50;1.27;;;21.30;56.00;;;;;;5040721;28;20112;-68
2023/10/24 05:44:22;;;;;;;2.40;1.25;;;21.30;56.00;;;;;;5041000;28;20500;-68
2023/10/24 05:46:49;;;;;;;2.15;1.30;;;21.30;56.00;;;;;;5042636;28;20559;-69
2023/10/24 05:49:15;;;;;;;2.35;1.20;;;21.30;56.00;;;;;;5040444;28;20021;-69
2023/10/24 05:51:40;;;;;;;7.35;1.48;;;21.30;56.00;;;;;;5040901;28;20036;-69
2023/10/24 05:54:06;;;;;;;3.50;1.27;;;21.30;56.50;;;;;;5050124;28;20060;-68
2023/10/24 05:56:32;;;;;;;4.25;1.25;;;21.30;56.50;;;;;;5044307;28;20037;-68
2023/10/24 05:58:58;;;;;;;2.65;1.20;;;21.30;56.70;;;;;;5046195;28;20076;-69
2023/10/24 06:01:23;;;;;;;2.22;1.30;;;21.30;56.80;;;;;;5045494;28;20029;-68
2023/10/24 06:03:49;;;;;;;2.22;1.02;;;21.30;56.70;;;;;;5044012;28;20032;-69
2023/10/24 06:06:15;;;;;;;2.53;1.30;;;21.30;56.80;;;;;;5047287;28;20033;-69
2023/10/24 06:08:41;;;;;;;2.75;1.10;;;21.30;56.80;;;;;;5049393;28;20017;-68
2023/10/24 06:11:07;;;;;;;3.47;1.30;;;21.30;56.80;;;;;;5051656;28;20268;-68
2023/10/24 06:13:32;;;;;;;3.03;1.10;;;21.30;56.70;;;;;;5049960;28;20024;-69
2023/10/24 06:16:11;;;;;;;2.20;1.20;;;21.30;56.70;;;;;;5049661;28;20029;-69
2023/10/24 06:18:37;;;;;;;2.75;1.20;;;21.30;56.80;;;;;;5050697;28;20014;-64
2023/10/24 06:21:04;;;;;;;2.15;1.10;;;21.40;56.70;;;;;;5045901;28;20029;-65
2023/10/24 06:23:30;;;;;;;3.95;1.38;;;21.40;56.70;;;;;;5039246;28;20104;-65
2023/10/24 06:25:56;;;;;;;2.17;1.10;;;21.40;56.70;;;;;;5045163;28;20159;-64
2023/10/24 06:28:22;;;;;;;2.95;1.20;;;21.40;56.70;;;;;;5040922;28;20018;-65
2023/10/24 06:30:55;;;;;;;4.47;1.20;;;21.50;56.70;;;;;;5042043;28;20040;-65
2023/10/24 06:33:21;;;;;;;2.70;1.48;;;21.50;56.80;;;;;;5044879;28;20048;-65
2023/10/24 06:35:46;;;;;;;3.22;1.10;;;21.50;56.60;;;;;;5036694;28;20381;-65
2023/10/24 06:38:12;;;;;;;4.68;1.67;;;21.50;56.80;;;;;;5045369;28;20045;-69
2023/10/24 06:40:38;;;;;;;2.42;1.23;;;21.50;56.90;;;;;;5049702;28;20545;-68
2023/10/24 06:43:05;;;;;;;2.75;1.20;;;21.60;56.70;;;;;;5050494;28;20029;-67
2023/10/24 06:45:32;;;;;;;4.07;1.38;;;21.50;56.50;;;;;;5051891;28;20017;-69
2023/10/24 06:47:57;;;;;;;3.90;1.40;;;21.60;56.50;;;;;;5048043;28;20028;-68
2023/10/24 06:50:23;;;;;;;3.13;1.40;;;21.60;56.40;;;;;;5046386;28;20545;-69
2023/10/24 06:52:48;;;;;;;4.63;1.73;;;21.60;56.30;;;;;;5048217;28;20063;-69
2023/10/24 06:55:14;;;;;;;2.97;1.38;;;21.60;56.30;;;;;;5046779;28;20470;-69
2023/10/24 06:57:40;;;;;;;3.15;1.40;;;21.60;56.30;;;;;;5042919;28;20028;-69
2023/10/24 07:00:06;;;;;;;3.47;1.48;;;21.60;56.30;;;;;;5044286;28;20043;-69
2023/10/24 07:02:34;;;;;;;3.00;1.60;;;21.70;56.20;;;;;;5044409;28;20072;-69
2023/10/24 07:05:00;;;;;;;3.03;1.33;;;21.70;56.20;;;;;;5045058;28;20397;-69
2023/10/24 07:07:26;;;;;;;3.25;1.58;;;21.70;56.20;;;;;;5044702;28;20021;-69
2023/10/24 07:09:51;;;;;;;3.38;1.55;;;21.70;56.10;;;;;;5048294;28;20021;-69
2023/10/24 07:12:17;;;;;;;4.35;1.40;;;21.70;56.10;;;;;;5045751;28;20389;-69
2023/10/24 07:14:43;;;;;;;3.03;1.60;;;21.70;56.10;;;;;;5051733;28;20033;-68
2023/10/24 07:17:08;;;;;;;3.03;1.60;;;21.80;56.20;;;;;;5050506;28;20117;-69
2023/10/24 07:19:34;;;;;;;3.33;1.60;;;21.80;56.10;;;;;;5048398;28;20032;-69
2023/10/24 07:21:59;;;;;;;2.05;1.15;;;21.80;56.00;;;;;;5036484;28;20032;-68
2023/10/24 07:24:25;;;;;;;4.10;1.75;;;21.80;56.00;;;;;;5038103;28;20481;-68
2023/10/24 07:26:53;;;;;;;2.80;1.40;;;21.80;56.00;;;;;;5038603;28;20096;-69
2023/10/24 07:29:19;;;;;;;3.13;1.53;;;21.80;55.90;;;;;;5038726;28;20021;-67
2023/10/24 07:31:45;;;;;;;4.05;1.60;;;21.80;55.90;;;;;;5037477;28;20821;-67
2023/10/24 07:34:10;;;;;;;3.08;1.55;;;21.80;55.90;;;;;;5039881;28;20040;-67
2023/10/24 07:36:36;;;;;;;3.10;1.50;;;21.80;55.90;;;;;;5038647;28;20037;-67
2023/10/24 07:39:01;;;;;;;3.50;1.77;;;21.80;55.80;;;;;;5041072;28;20033;-67
2023/10/24 07:41:27;;;;;;;3.28;1.90;;;21.80;55.80;;;;;;5038868;28;20041;-66
2023/10/24 07:43:53;;;;;;;3.13;1.88;;;21.80;55.80;;;;;;5038537;28;20033;-66
2023/10/24 07:46:18;;;;;;;3.80;1.80;;;21.80;55.80;;;;;;5038541;28;20017;-67
2023/10/24 07:48:44;;;;;;;3.13;1.70;;;21.80;55.70;;;;;;5040642;28;20028;-69
2023/10/24 07:51:11;;;;;;;3.20;1.60;;;21.80;55.70;;;;;;5035646;28;20021;-68
2023/10/24 07:53:36;;;;;;;3.65;1.85;;;21.80;55.70;;;;;;5039634;28;20504;-69
2023/10/24 07:56:06;;;;;;;2.85;1.58;;;21.80;55.70;;;;;;5038275;28;20094;-69
2023/10/24 07:58:32;;;;;;;4.03;1.58;;;21.80;55.70;;;;;;5038634;28;20397;-69
2023/10/24 08:00:58;;;;;;;3.78;1.70;;;21.80;55.70;;;;;;5038322;28;20025;-69
2023/10/24 08:03:23;;;;;;;3.92;1.90;;;21.80;55.70;;;;;;5039066;28;20018;-69
2023/10/24 08:05:49;;;;;;;3.67;1.63;;;21.80;55.70;;;;;;5037053;28;20029;-69
2023/10/24 08:08:15;;;;;;;2.85;1.40;;;21.80;55.70;;;;;;5038333;28;20392;-69
2023/10/24 08:10:40;;;;;;;2.75;1.60;;;21.80;55.70;;;;;;5039730;28;20117;-68
2023/10/24 08:13:06;;;;;;;3.85;1.75;;;21.80;55.70;;;;;;5038985;28;20025;-69
2023/10/24 08:15:32;;;;;;;3.28;1.60;;;21.70;55.60;;;;;;5037585;28;20033;-69
2023/10/24 08:17:57;;;;;;;3.33;1.80;;;21.70;55.60;;;;;;5036746;28;20824;-69
2023/10/24 08:20:23;;;;;;;3.00;1.58;;;21.70;55.60;;;;;;5038020;28;20033;-69
2023/10/24 08:22:49;;;;;;;3.03;1.60;;;21.70;55.60;;;;;;5037977;28;20033;-69
2023/10/24 08:25:15;;;;;;;2.50;1.40;;;21.70;55.80;;;;;;5037721;28;20481;-69
2023/10/24 08:27:40;;;;;;;2.60;1.50;;;21.70;55.70;;;;;;5036645;28;20025;-69
2023/10/24 08:30:06;;;;;;;2.58;1.42;;;21.70;55.70;;;;;;5037501;28;20505;-68
2023/10/24 08:32:32;;;;;;;3.42;1.60;;;21.70;55.60;;;;;;5037345;28;20055;-69
2023/10/24 08:34:58;;;;;;;3.10;1.63;;;21.70;55.70;;;;;;5040536;28;20029;-69
2023/10/24 08:37:24;;;;;;;3.53;1.50;;;21.70;55.60;;;;;;5038156;28;20079;-69
2023/10/24 08:39:50;;;;;;;2.67;1.60;;;21.70;55.60;;;;;;5040318;28;20030;-69
2023/10/24 08:42:16;;;;;;;3.05;1.60;;;21.70;55.60;;;;;;5038748;28;20022;-69
2023/10/24 08:44:42;;;;;;;2.58;1.50;;;21.70;55.60;;;;;;5040596;28;20025;-69
2023/10/24 08:47:09;;;;;;;3.15;1.58;;;21.70;55.60;;;;;;5036828;28;20035;-69
2023/10/24 08:49:38;;;;;;;2.42;1.30;;;21.70;55.70;;;;;;5037825;28;20029;-68
2023/10/24 08:52:05;;;;;;;3.30;1.45;;;21.70;55.70;;;;;;5037266;28;20037;-69
2023/10/24 08:54:31;;;;;;;2.78;1.50;;;21.70;55.60;;;;;;5037580;28;20055;-69
2023/10/24 08:57:00;;;;;;;3.15;1.50;;;21.60;55.60;;;;;;5038900;28;20040;-69
2023/10/24 08:59:29;;;;;;;2.80;1.50;;;21.60;55.60;;;;;;5037865;28;20594;-68
2023/10/24 09:01:55;;;;;;;2.55;1.40;;;21.60;55.60;;;;;;5036810;28;20504;-68
2023/10/24 09:04:21;;;;;;;2.50;1.50;;;21.60;55.60;;;;;;5036736;28;20033;-68
2023/10/24 09:06:47;;;;;;;3.05;1.65;;;21.60;55.60;;;;;;5035535;28;20047;-68
2023/10/24 09:09:14;;;;;;;2.15;1.30;;;21.60;55.60;;;;;;5039322;28;20100;-68
2023/10/24 09:11:52;;;;;;;2.70;1.30;;;21.60;55.60;;;;;;5037439;28;20155;-68
2023/10/24 09:14:18;;;;;;;3.45;1.70;;;21.60;55.60;;;;;;5039031;28;20660;-68
2023/10/24 09:16:44;;;;;;;2.60;1.42;;;21.60;55.70;;;;;;5037669;28;20122;-68
2023/10/24 09:19:12;;;;;;;3.42;1.35;;;21.60;55.70;;;;;;5035555;28;20029;-69
2023/10/24 09:21:38;;;;;;;2.83;1.30;;;21.60;55.70;;;;;;5037674;28;20104;-68
2023/10/24 09:24:12;;;;;;;2.50;1.45;;;21.60;55.70;;;;;;5037321;28;20170;-68
2023/10/24 09:26:49;;;;;;;2.80;1.40;;;21.60;55.70;;;;;;5036759;28;20107;-69
2023/10/24 09:29:16;;;;;;;3.17;1.48;;;21.60;55.70;;;;;;5052427;28;20029;-68
2023/10/24 09:31:41;;;;;;;2.70;1.40;;;21.60;55.70;;;;;;5035818;28;20037;-68
2023/10/24 09:34:07;;;;;;;2.47;1.50;;;21.60;55.70;;;;;;5037973;28;20036;-68
2023/10/24 09:36:34;;;;;;;2.38;1.45;;;21.50;55.60;;;;;;5036231;28;20029;-68
2023/10/24 09:39:00;;;;;;;2.20;1.30;;;21.60;55.70;;;;;;5039351;28;20477;-68
2023/10/24 09:41:26;;;;;;;2.72;1.40;;;21.50;55.70;;;;;;5040714;28;20025;-68
2023/10/24 09:43:55;;;;;;;2.85;1.50;;;21.50;55.60;;;;;;5042253;28;20051;-68
2023/10/24 09:46:24;;;;;;;2.30;1.40;;;21.50;55.60;;;;;;5041021;28;20027;-68
2023/10/24 09:48:52;;;;;;;3.65;1.50;;;21.50;55.70;;;;;;5041005;28;20033;-64
2023/10/24 09:51:19;;;;;;;3.05;1.65;;;21.50;55.70;;;;;;5042589;28;20582;-64
2023/10/24 09:53:46;;;;;;;3.67;1.65;;;21.50;55.70;;;;;;5040471;28;20545;-65
2023/10/24 09:56:12;;;;;;;2.85;1.67;;;21.50;55.60;;;;;;5041420;28;20453;-65
2023/10/24 09:58:41;;;;;;;2.85;1.48;;;21.50;55.70;;;;;;5041474;28;20109;-64
2023/10/24 10:01:09;;;;;;;2.90;1.67;;;21.50;55.60;;;;;;5038035;28;20335;-65
2023/10/24 10:03:35;;;;;;;2.63;1.40;;;21.50;55.60;;;;;;5042293;28;20083;-65
2023/10/24 10:06:08;;;;;;;2.83;1.60;;;21.50;55.60;;;;;;5042491;28;20021;-65
2023/10/24 10:08:36;;;;;;;3.05;1.30;;;21.50;55.70;;;;;;5038810;28;20582;-68
2023/10/24 10:11:05;;;;;;;2.85;1.55;;;21.50;55.70;;;;;;5040647;28;20029;-68
2023/10/24 10:13:42;;;;;;;2.38;1.45;;;21.50;55.70;;;;;;5040822;28;20017;-68
2023/10/24 10:16:45;;;;;;;2.88;1.45;;;21.40;55.60;;;;;;5041244;28;20111;-68
2023/10/24 10:19:47;;;;;;;2.47;1.40;;;21.40;55.60;;;;;;5040564;28;20025;-68
2023/10/24 10:22:50;;;;;;;2.80;1.60;;;21.50;55.70;;;;;;5040789;28;20160;-68
2023/10/24 10:25:27;;;;;;;2.70;1.50;;;21.40;55.60;;;;;;5038321;28;20170;-68
2023/10/24 10:28:32;;;;;;;1.88;1.20;;;21.40;55.60;;;;;;5041539;28;20097;-68
2023/10/24 10:31:04;;;;;;;2.63;1.55;;;21.40;55.60;;;;;;5040159;28;20619;-69
2023/10/24 10:33:30;;;;;;;2.38;1.40;;;21.40;55.60;;;;;;5038048;28;20098;-69
2023/10/24 10:36:04;;;;;;;1.88;1.30;;;21.40;55.70;;;;;;5039423;28;20041;-69
2023/10/24 10:38:39;;;;;;;2.80;1.65;;;21.40;55.70;;;;;;5038942;28;20353;-68
2023/10/24 10:41:28;;;;;;;2.85;1.88;;;21.40;55.70;;;;;;5041152;28;20033;-68
2023/10/24 10:43:55;;;;;;;2.20;1.20;;;21.40;55.70;;;;;;5041021;28;20103;-69
2023/10/24 10:46:25;;;;;;;2.60;1.55;;;21.40;55.70;;;;;;5038277;28;20542;-68
2023/10/24 10:48:51;;;;;;;3.47;1.77;;;21.40;55.70;;;;;;5053507;28;20018;-68
2023/10/24 10:51:22;;;;;;;2.05;1.35;;;21.40;55.70;;;;;;5039883;28;20025;-68
2023/10/24 10:54:07;;;;;;;3.05;1.50;;;21.40;55.70;;;;;;5037674;28;20509;-68
2023/10/24 10:56:36;;;;;;;2.80;1.40;;;21.40;55.70;;;;;;5038690;28;20021;-68
2023/10/24 10:59:07;;;;;;;3.83;1.73;;;21.40;55.70;;;;;;5040901;28;20021;-67
2023/10/24 11:01:51;;;;;;;2.50;1.50;;;21.40;55.70;;;;;;5006787;28;20049;-67
2023/10/24 11:04:17;;;;;;;2.22;1.27;;;21.40;55.80;;;;;;5038819;28;20026;-68
2023/10/24 11:06:56;;;;;;;2.20;1.30;;;21.40;55.70;;;;;;5041015;28;20033;-68
2023/10/24 11:09:26;;;;;;;;;;;21.40;55.70;;;;;;5039943;28;20120;-68
2023/10/24 11:12:22;;;;;;;3.38;1.55;;;21.40;55.70;;;;;;5040214;28;20375;-69
2023/10/24 11:15:16;;;;;;;2.67;1.50;;;21.40;55.70;;;;;;5038986;28;20025;-68
2023/10/24 11:17:43;;;;;;;3.17;1.60;;;21.30;55.70;;;;;;5037847;28;20029;-68
2023/10/24 11:20:10;;;;;;;3.22;1.60;;;21.40;55.70;;;;;;5038609;28;20056;-68
2023/10/24 11:22:38;;;;;;;2.63;1.58;;;21.30;55.70;;;;;;5039213;28;20032;-68
2023/10/24 11:25:12;;;;;;;2.83;1.60;;;21.30;55.70;;;;;;5037882;28;20076;-69
2023/10/24 11:27:41;;;;;;;2.85;1.50;;;21.30;55.70;;;;;;5040331;28;20065;-69
2023/10/24 11:30:07;;;;;;;2.53;1.45;;;21.30;55.80;;;;;;5040125;28;20070;-68
2023/10/24 11:32:34;;;;;;;2.70;1.40;;;21.30;55.70;;;;;;5038675;28;20029;-69
2023/10/24 11:35:00;;;;;;;2.80;1.63;;;21.30;55.70;;;;;;5038449;28;20044;-69
2023/10/24 11:37:27;;;;;;;3.00;1.60;;;21.30;55.70;;;;;;5039026;28;20025;-69
2023/10/24 11:39:53;;;;;;;2.53;1.40;;;21.30;55.70;;;;;;5039513;28;20071;-69
2023/10/24 11:42:18;;;;;;;2.50;1.42;;;21.30;55.70;;;;;;5040215;28;20454;-69
2023/10/24 11:44:44;;;;;;;2.45;1.40;;;21.30;55.80;;;;;;5040954;28;20032;-69
2023/10/24 11:47:19;;;;;;;3.45;1.80;;;21.30;55.80;;;;;;5038872;28;20056;-69
2023/10/24 11:49:48;;;;;;;2.75;1.42;;;21.30;55.80;;;;;;5070222;28;20021;-69
2023/10/24 11:52:14;;;;;;;2.42;1.40;;;21.30;55.70;;;;;;5040073;28;20021;-70
2023/10/24 11:54:40;;;;;;;3.03;1.35;;;21.30;55.80;;;;;;5038115;28;20037;-70
2023/10/24 11:57:06;;;;;;;2.55;1.50;;;21.30;55.80;;;;;;5037639;28;20435;-69
2023/10/24 11:59:33;;;;;;;2.10;1.25;;;21.30;55.80;;;;;;5038090;28;20071;-71
2023/10/24 12:02:01;;;;;;;2.38;1.40;;;21.30;55.70;;;;;;5037367;28;20057;-70
2023/10/24 12:04:26;;;;;;;2.28;1.30;;;21.30;55.80;;;;;;5037571;28;20604;-70
2023/10/24 12:07:07;;;;;;;2.15;1.30;;;21.30;55.80;;;;;;5039695;28;20040;-70
2023/10/24 12:09:34;;;;;;;2.90;1.63;;;21.30;55.80;;;;;;5037078;28;20029;-71
2023/10/24 12:12:06;;;;;;;2.45;1.50;;;21.30;55.80;;;;;;5039889;28;20474;-70
2023/10/24 12:14:35;;;;;;;2.70;1.50;;;21.30;55.80;;;;;;5038751;28;20022;-71
2023/10/24 12:17:01;;;;;;;2.63;1.20;;;21.30;55.80;;;;;;5038396;28;20056;-71
2023/10/24 12:19:27;;;;;;;2.38;1.40;;;21.20;55.80;;;;;;5038863;28;20041;-71
2023/10/24 12:21:55;;;;;;;2.63;1.60;;;21.30;55.80;;;;;;5038275;28;20434;-71
2023/10/24 12:24:21;;;;;;;2.97;1.50;;;21.20;55.70;;;;;;5036597;28;20021;-71
2023/10/24 12:26:47;;;;;;;2.78;1.50;;;21.30;55.80;;;;;;5039092;28;20032;-71
2023/10/24 12:29:13;;;;;;;2.92;1.40;;;21.20;55.70;;;;;;5038177;28;20026;-67
2023/10/24 12:31:39;;;;;;;2.20;1.30;;;21.20;55.70;;;;;;5038168;28;20033;-67
2023/10/24 12:34:05;;;;;;;2.38;1.20;;;21.20;55.80;;;;;;5038029;28;20086;-66
2023/10/24 12:36:31;;;;;;;2.38;1.30;;;21.20;55.80;;;;;;5037944;28;20377;-67
2023/10/24 12:38:56;;;;;;;1.83;1.10;;;21.20;55.70;;;;;;5036318;28;20033;-66
2023/10/24 12:41:22;;;;;;;3.00;1.40;;;21.20;55.80;;;;;;5038691;28;20393;-66
2023/10/24 12:43:48;;;;;;;2.35;1.38;;;21.20;55.80;;;;;;5036592;28;20508;-66
2023/10/24 12:46:13;;;;;;;2.30;1.20;;;21.20;55.80;;;;;;5039026;28;20029;-66
2023/10/24 12:48:40;;;;;;;2.13;1.35;;;21.20;55.80;;;;;;5039878;28;20079;-67